sensor_id;sensor_type;location;lat;lon;timestamp;pressure;altitude;pressure_sealevel;temperature;humidity
59545;BME280;45368;55.002;-1.592;2023-02-28T00:02:05;102934.12;;;6.24;59.85
59545;BME280;45368;55.002;-1.592;2023-02-28T00:04:32;102930.94;;;6.01;59.85
59545;BME280;45368;55.002;-1.592;2023-02-28T00:06:58;102935.87;;;5.42;60.95
59545;BME280;45368;55.002;-1.592;2023-02-28T00:09:26;102935.26;;;5.24;61.54
59545;BME280;45368;55.002;-1.592;2023-02-28T00:11:54;102931.42;;;6.43;58.35
59545;BME280;45368;55.002;-1.592;2023-02-28T00:14:30;102934.85;;;6.24;58.80
59545;BME280;45368;55.002;-1.592;2023-02-28T00:16:58;102943.42;;;4.02;64.51
59545;BME280;45368;55.002;-1.592;2023-02-28T00:19:33;102947.69;;;4.60;63.92
59545;BME280;45368;55.002;-1.592;2023-02-28T00:22:06;102950.11;;;5.22;62.43
59545;BME280;45368;55.002;-1.592;2023-02-28T00:24:34;102953.73;;;4.34;65.31
59545;BME280;45368;55.002;-1.592;2023-02-28T00:27:26;102948.42;;;5.58;62.40
59545;BME280;45368;55.002;-1.592;2023-02-28T00:29:54;102947.61;;;5.58;62.21
59545;BME280;45368;55.002;-1.592;2023-02-28T00:32:23;102951.31;;;4.95;63.31
59545;BME280;45368;55.002;-1.592;2023-02-28T00:34:51;102952.67;;;3.55;67.25
59545;BME280;45368;55.002;-1.592;2023-02-28T00:37:41;102953.16;;;4.56;66.67
59545;BME280;45368;55.002;-1.592;2023-02-28T00:40:32;102957.37;;;4.35;67.30
59545;BME280;45368;55.002;-1.592;2023-02-28T00:43:40;102955.82;;;4.61;67.18
59545;BME280;45368;55.002;-1.592;2023-02-28T00:46:30;102958.79;;;4.49;68.01
59545;BME280;45368;55.002;-1.592;2023-02-28T00:49:32;102956.30;;;4.62;67.68
59545;BME280;45368;55.002;-1.592;2023-02-28T00:53:10;102955.79;;;4.21;68.49
59545;BME280;45368;55.002;-1.592;2023-02-28T00:55:47;102962.08;;;4.43;67.37
59545;BME280;45368;55.002;-1.592;2023-02-28T00:59:31;102962.68;;;5.18;66.17
59545;BME280;45368;55.002;-1.592;2023-02-28T01:02:20;102965.49;;;4.87;67.05
59545;BME280;45368;55.002;-1.592;2023-02-28T01:04:51;102965.99;;;4.95;64.73
59545;BME280;45368;55.002;-1.592;2023-02-28T01:07:20;102963.68;;;4.94;64.37
59545;BME280;45368;55.002;-1.592;2023-02-28T01:10:09;102965.94;;;5.12;64.07
59545;BME280;45368;55.002;-1.592;2023-02-28T01:12:39;102969.48;;;4.21;65.50
59545;BME280;45368;55.002;-1.592;2023-02-28T01:15:12;102973.40;;;4.84;64.78
59545;BME280;45368;55.002;-1.592;2023-02-28T01:18:06;102972.28;;;5.12;64.66
59545;BME280;45368;55.002;-1.592;2023-02-28T01:20:37;102970.83;;;4.63;65.80
59545;BME280;45368;55.002;-1.592;2023-02-28T01:23:27;102970.75;;;3.88;68.31
59545;BME280;45368;55.002;-1.592;2023-02-28T01:26:37;102971.34;;;5.05;66.62
59545;BME280;45368;55.002;-1.592;2023-02-28T01:29:39;102968.92;;;5.05;65.65
59545;BME280;45368;55.002;-1.592;2023-02-28T01:33:00;102966.90;;;6.25;63.16
59545;BME280;45368;55.002;-1.592;2023-02-28T01:35:41;102971.14;;;5.93;62.06
59545;BME280;45368;55.002;-1.592;2023-02-28T01:38:08;102970.41;;;6.36;60.31
59545;BME280;45368;55.002;-1.592;2023-02-28T01:40:36;102978.79;;;5.07;63.66
59545;BME280;45368;55.002;-1.592;2023-02-28T01:43:08;102976.04;;;5.04;64.32
59545;BME280;45368;55.002;-1.592;2023-02-28T01:45:59;102975.45;;;4.29;68.56
59545;BME280;45368;55.002;-1.592;2023-02-28T01:48:30;102973.46;;;5.27;65.47
59545;BME280;45368;55.002;-1.592;2023-02-28T01:51:01;102972.05;;;5.01;65.87
59545;BME280;45368;55.002;-1.592;2023-02-28T01:53:36;102973.03;;;5.33;64.30
59545;BME280;45368;55.002;-1.592;2023-02-28T01:56:07;102968.75;;;5.81;62.71
59545;BME280;45368;55.002;-1.592;2023-02-28T01:58:38;102965.15;;;5.03;64.52
59545;BME280;45368;55.002;-1.592;2023-02-28T02:01:27;102965.42;;;5.98;63.01
59545;BME280;45368;55.002;-1.592;2023-02-28T02:03:58;102967.91;;;5.56;63.86
59545;BME280;45368;55.002;-1.592;2023-02-28T02:06:38;102967.56;;;4.66;65.88
59545;BME280;45368;55.002;-1.592;2023-02-28T02:09:07;102967.22;;;5.66;63.55
59545;BME280;45368;55.002;-1.592;2023-02-28T02:11:36;102961.19;;;6.10;62.22
59545;BME280;45368;55.002;-1.592;2023-02-28T02:14:53;102963.09;;;5.09;64.22
59545;BME280;45368;55.002;-1.592;2023-02-28T02:17:32;102955.58;;;5.93;61.43
59545;BME280;45368;55.002;-1.592;2023-02-28T02:23:33;102954.12;;;5.98;62.93
59545;BME280;45368;55.002;-1.592;2023-02-28T02:27:32;102955.69;;;5.36;62.49
59545;BME280;45368;55.002;-1.592;2023-02-28T02:30:29;102949.27;;;5.17;62.76
59545;BME280;45368;55.002;-1.592;2023-02-28T02:33:58;102950.28;;;4.72;65.26
59545;BME280;45368;55.002;-1.592;2023-02-28T02:36:34;102946.02;;;4.85;63.63
59545;BME280;45368;55.002;-1.592;2023-02-28T02:39:34;102945.19;;;6.13;61.19
59545;BME280;45368;55.002;-1.592;2023-02-28T02:42:29;102947.26;;;5.42;61.14
59545;BME280;45368;55.002;-1.592;2023-02-28T02:45:03;102946.88;;;5.89;59.70
59545;BME280;45368;55.002;-1.592;2023-02-28T02:47:35;102949.48;;;5.36;60.23
59545;BME280;45368;55.002;-1.592;2023-02-28T02:50:38;102949.45;;;5.33;60.03
59545;BME280;45368;55.002;-1.592;2023-02-28T02:53:08;102949.33;;;5.09;60.89
59545;BME280;45368;55.002;-1.592;2023-02-28T02:55:41;102952.46;;;5.20;60.92
59545;BME280;45368;55.002;-1.592;2023-02-28T02:58:29;102951.75;;;5.68;59.93
59545;BME280;45368;55.002;-1.592;2023-02-28T03:01:02;102955.69;;;5.19;60.66
59545;BME280;45368;55.002;-1.592;2023-02-28T03:03:31;102955.99;;;4.14;63.16
59545;BME280;45368;55.002;-1.592;2023-02-28T03:06:01;102958.61;;;4.21;63.76
59545;BME280;45368;55.002;-1.592;2023-02-28T03:08:33;102958.98;;;4.00;65.15
59545;BME280;45368;55.002;-1.592;2023-02-28T03:11:03;102958.11;;;5.00;63.00
59545;BME280;45368;55.002;-1.592;2023-02-28T03:14:44;102952.81;;;4.87;62.30
59545;BME280;45368;55.002;-1.592;2023-02-28T03:17:30;102951.48;;;4.14;63.25
59545;BME280;45368;55.002;-1.592;2023-02-28T03:20:11;102947.07;;;4.86;62.23
59545;BME280;45368;55.002;-1.592;2023-02-28T03:23:08;102946.79;;;4.24;63.20
59545;BME280;45368;55.002;-1.592;2023-02-28T03:25:45;102949.26;;;4.52;62.92
59545;BME280;45368;55.002;-1.592;2023-02-28T03:28:22;102954.11;;;3.88;64.58
59545;BME280;45368;55.002;-1.592;2023-02-28T03:30:56;102951.27;;;4.26;64.46
59545;BME280;45368;55.002;-1.592;2023-02-28T03:33:36;102950.32;;;3.94;64.72
59545;BME280;45368;55.002;-1.592;2023-02-28T03:36:17;102947.81;;;4.61;63.56
59545;BME280;45368;55.002;-1.592;2023-02-28T03:38:54;102943.81;;;4.62;63.16
59545;BME280;45368;55.002;-1.592;2023-02-28T03:41:27;102945.95;;;4.34;63.45
59545;BME280;45368;55.002;-1.592;2023-02-28T03:43:59;102945.57;;;3.75;65.60
59545;BME280;45368;55.002;-1.592;2023-02-28T03:49:07;102942.88;;;4.50;64.02
59545;BME280;45368;55.002;-1.592;2023-02-28T03:51:41;102941.14;;;4.95;61.07
59545;BME280;45368;55.002;-1.592;2023-02-28T03:54:42;102943.18;;;5.16;60.32
59545;BME280;45368;55.002;-1.592;2023-02-28T03:57:18;102944.86;;;4.14;63.03
59545;BME280;45368;55.002;-1.592;2023-02-28T03:59:56;102946.24;;;4.45;62.25
59545;BME280;45368;55.002;-1.592;2023-02-28T04:02:33;102948.94;;;4.65;62.25
59545;BME280;45368;55.002;-1.592;2023-02-28T04:05:19;102948.58;;;4.21;63.50
59545;BME280;45368;55.002;-1.592;2023-02-28T04:08:41;102949.42;;;5.50;62.00
59545;BME280;45368;55.002;-1.592;2023-02-28T04:11:23;102954.97;;;4.26;63.00
59545;BME280;45368;55.002;-1.592;2023-02-28T04:13:51;102953.63;;;4.18;63.13
59545;BME280;45368;55.002;-1.592;2023-02-28T04:16:19;102952.93;;;4.57;62.40
59545;BME280;45368;55.002;-1.592;2023-02-28T04:18:46;102951.47;;;4.73;61.97
59545;BME280;45368;55.002;-1.592;2023-02-28T04:21:15;102952.51;;;4.61;62.46
59545;BME280;45368;55.002;-1.592;2023-02-28T04:23:43;102951.80;;;5.11;61.38
59545;BME280;45368;55.002;-1.592;2023-02-28T04:26:11;102947.38;;;5.92;58.68
59545;BME280;45368;55.002;-1.592;2023-02-28T04:28:38;102951.48;;;6.10;58.76
59545;BME280;45368;55.002;-1.592;2023-02-28T04:31:38;102963.09;;;4.83;60.96
59545;BME280;45368;55.002;-1.592;2023-02-28T04:34:05;102962.16;;;5.32;60.03
59545;BME280;45368;55.002;-1.592;2023-02-28T04:36:33;102964.35;;;5.38;60.37
59545;BME280;45368;55.002;-1.592;2023-02-28T04:39:02;102966.86;;;4.79;61.14
59545;BME280;45368;55.002;-1.592;2023-02-28T04:41:29;102968.01;;;4.91;61.45
59545;BME280;45368;55.002;-1.592;2023-02-28T04:43:57;102968.28;;;5.26;60.52
59545;BME280;45368;55.002;-1.592;2023-02-28T04:46:25;102971.47;;;4.19;63.50
59545;BME280;45368;55.002;-1.592;2023-02-28T04:48:52;102970.07;;;4.39;63.16
59545;BME280;45368;55.002;-1.592;2023-02-28T04:51:29;102967.21;;;3.82;63.82
59545;BME280;45368;55.002;-1.592;2023-02-28T04:53:56;102967.57;;;4.73;61.49
59545;BME280;45368;55.002;-1.592;2023-02-28T04:56:24;102969.35;;;4.34;62.97
59545;BME280;45368;55.002;-1.592;2023-02-28T04:58:52;102968.99;;;4.10;63.46
59545;BME280;45368;55.002;-1.592;2023-02-28T05:01:22;102966.86;;;3.99;64.50
59545;BME280;45368;55.002;-1.592;2023-02-28T05:03:52;102963.25;;;4.63;63.99
59545;BME280;45368;55.002;-1.592;2023-02-28T05:06:21;102962.10;;;4.75;62.63
59545;BME280;45368;55.002;-1.592;2023-02-28T05:08:49;102963.92;;;5.20;63.48
59545;BME280;45368;55.002;-1.592;2023-02-28T05:11:20;102967.71;;;4.28;63.89
59545;BME280;45368;55.002;-1.592;2023-02-28T05:13:49;102972.61;;;4.52;63.99
59545;BME280;45368;55.002;-1.592;2023-02-28T05:16:45;102967.90;;;4.78;62.66
59545;BME280;45368;55.002;-1.592;2023-02-28T05:19:19;102967.64;;;4.79;62.91
59545;BME280;45368;55.002;-1.592;2023-02-28T05:21:53;102966.43;;;5.27;61.31
59545;BME280;45368;55.002;-1.592;2023-02-28T05:24:21;102966.93;;;4.61;62.79
59545;BME280;45368;55.002;-1.592;2023-02-28T05:26:51;102965.79;;;4.47;63.36
59545;BME280;45368;55.002;-1.592;2023-02-28T05:30:09;102956.99;;;6.20;59.59
59545;BME280;45368;55.002;-1.592;2023-02-28T05:32:48;102955.10;;;6.59;57.69
59545;BME280;45368;55.002;-1.592;2023-02-28T05:35:31;102957.47;;;6.69;57.42
59545;BME280;45368;55.002;-1.592;2023-02-28T05:37:59;102959.51;;;6.17;57.90
59545;BME280;45368;55.002;-1.592;2023-02-28T05:40:27;102961.44;;;6.10;59.13
59545;BME280;45368;55.002;-1.592;2023-02-28T05:42:55;102959.60;;;5.97;59.23
59545;BME280;45368;55.002;-1.592;2023-02-28T05:45:23;102963.12;;;6.21;59.27
59545;BME280;45368;55.002;-1.592;2023-02-28T05:47:54;102977.37;;;4.86;63.10
59545;BME280;45368;55.002;-1.592;2023-02-28T05:50:27;102976.50;;;5.21;62.59
59545;BME280;45368;55.002;-1.592;2023-02-28T05:52:55;102979.99;;;3.75;67.11
59545;BME280;45368;55.002;-1.592;2023-02-28T05:55:23;102976.77;;;4.13;66.71
59545;BME280;45368;55.002;-1.592;2023-02-28T05:57:51;102974.32;;;4.06;67.71
59545;BME280;45368;55.002;-1.592;2023-02-28T06:00:31;102973.36;;;5.11;65.12
59545;BME280;45368;55.002;-1.592;2023-02-28T06:03:06;102973.23;;;5.18;65.23
59545;BME280;45368;55.002;-1.592;2023-02-28T06:05:40;102973.90;;;5.14;64.80
59545;BME280;45368;55.002;-1.592;2023-02-28T06:08:09;102970.65;;;5.19;64.93
59545;BME280;45368;55.002;-1.592;2023-02-28T06:10:37;102972.73;;;4.86;66.27
59545;BME280;45368;55.002;-1.592;2023-02-28T06:13:05;102974.82;;;4.58;67.23
59545;BME280;45368;55.002;-1.592;2023-02-28T06:15:38;102974.17;;;4.24;68.17
59545;BME280;45368;55.002;-1.592;2023-02-28T06:18:06;102971.42;;;5.17;65.57
59545;BME280;45368;55.002;-1.592;2023-02-28T06:20:34;102968.71;;;5.89;64.53
59545;BME280;45368;55.002;-1.592;2023-02-28T06:23:01;102969.84;;;4.76;67.10
59545;BME280;45368;55.002;-1.592;2023-02-28T06:28:41;102979.35;;;5.89;65.28
59545;BME280;45368;55.002;-1.592;2023-02-28T06:31:10;102978.17;;;5.61;64.22
59545;BME280;45368;55.002;-1.592;2023-02-28T06:33:39;102982.52;;;5.31;64.27
59545;BME280;45368;55.002;-1.592;2023-02-28T06:36:07;102982.35;;;6.14;63.08
59545;BME280;45368;55.002;-1.592;2023-02-28T06:38:36;102981.56;;;6.59;62.16
59545;BME280;45368;55.002;-1.592;2023-02-28T06:41:05;102987.44;;;5.56;65.10
59545;BME280;45368;55.002;-1.592;2023-02-28T06:43:40;102986.55;;;5.38;65.19
59545;BME280;45368;55.002;-1.592;2023-02-28T06:46:43;102989.60;;;4.24;69.49
59545;BME280;45368;55.002;-1.592;2023-02-28T06:49:12;102991.57;;;3.75;72.22
59545;BME280;45368;55.002;-1.592;2023-02-28T06:51:42;102988.52;;;3.45;72.95
59545;BME280;45368;55.002;-1.592;2023-02-28T08:08:31;103013.47;;;4.14;73.13
59545;BME280;45368;55.002;-1.592;2023-02-28T08:10:59;103009.62;;;3.68;73.99
59545;BME280;45368;55.002;-1.592;2023-02-28T08:13:34;103016.40;;;4.33;71.06
59545;BME280;45368;55.002;-1.592;2023-02-28T08:16:02;103017.48;;;4.53;70.07
59545;BME280;45368;55.002;-1.592;2023-02-28T08:18:30;103020.41;;;4.11;70.59
59545;BME280;45368;55.002;-1.592;2023-02-28T08:20:57;103015.90;;;5.02;69.10
59545;BME280;45368;55.002;-1.592;2023-02-28T08:23:57;103012.31;;;6.15;67.05
59545;BME280;45368;55.002;-1.592;2023-02-28T08:26:33;103010.40;;;4.73;69.10
59545;BME280;45368;55.002;-1.592;2023-02-28T08:29:09;103012.86;;;3.76;71.43
59545;BME280;45368;55.002;-1.592;2023-02-28T08:32:12;103014.70;;;3.78;71.90
59545;BME280;45368;55.002;-1.592;2023-02-28T08:37:07;103018.43;;;4.23;72.85
59545;BME280;45368;55.002;-1.592;2023-02-28T08:44:15;103016.87;;;4.65;70.94
59545;BME280;45368;55.002;-1.592;2023-02-28T09:31:11;103023.44;;;5.42;69.61
59545;BME280;45368;55.002;-1.592;2023-02-28T09:45:19;103041.41;;;4.15;72.27
59545;BME280;45368;55.002;-1.592;2023-02-28T09:56:31;103051.13;;;4.29;69.75
59545;BME280;45368;55.002;-1.592;2023-02-28T09:59:17;103044.45;;;4.13;69.20
59545;BME280;45368;55.002;-1.592;2023-02-28T10:01:54;103048.89;;;4.02;70.73
59545;BME280;45368;55.002;-1.592;2023-02-28T10:04:38;103054.94;;;3.25;74.08
59545;BME280;45368;55.002;-1.592;2023-02-28T10:07:19;103058.43;;;3.87;71.45
59545;BME280;45368;55.002;-1.592;2023-02-28T10:09:52;103056.39;;;3.84;70.73
59545;BME280;45368;55.002;-1.592;2023-02-28T10:12:22;103059.29;;;4.22;70.77
59545;BME280;45368;55.002;-1.592;2023-02-28T10:14:54;103054.86;;;4.43;69.50
59545;BME280;45368;55.002;-1.592;2023-02-28T10:17:25;103053.23;;;4.11;68.59
59545;BME280;45368;55.002;-1.592;2023-02-28T10:19:59;103055.50;;;4.97;67.30
59545;BME280;45368;55.002;-1.592;2023-02-28T10:22:30;103058.79;;;4.99;67.12
59545;BME280;45368;55.002;-1.592;2023-02-28T10:25:11;103060.66;;;4.24;68.04
59545;BME280;45368;55.002;-1.592;2023-02-28T10:27:43;103063.17;;;4.87;68.12
59545;BME280;45368;55.002;-1.592;2023-02-28T10:30:13;103060.95;;;5.38;65.35
59545;BME280;45368;55.002;-1.592;2023-02-28T10:32:44;103068.14;;;4.36;66.76
59545;BME280;45368;55.002;-1.592;2023-02-28T10:35:16;103061.11;;;4.61;66.23
59545;BME280;45368;55.002;-1.592;2023-02-28T10:37:46;103070.88;;;4.44;66.79
59545;BME280;45368;55.002;-1.592;2023-02-28T10:40:29;103067.70;;;3.56;68.59
59545;BME280;45368;55.002;-1.592;2023-02-28T10:43:01;103069.07;;;3.60;69.92
59545;BME280;45368;55.002;-1.592;2023-02-28T10:45:31;103072.27;;;3.84;68.89
59545;BME280;45368;55.002;-1.592;2023-02-28T10:48:02;103069.38;;;4.67;66.63
59545;BME280;45368;55.002;-1.592;2023-02-28T10:50:35;103068.28;;;3.78;70.35
59545;BME280;45368;55.002;-1.592;2023-02-28T10:53:15;103067.22;;;3.42;70.23
59545;BME280;45368;55.002;-1.592;2023-02-28T10:55:43;103062.39;;;3.88;68.41
59545;BME280;45368;55.002;-1.592;2023-02-28T10:58:21;103068.15;;;3.78;68.86
59545;BME280;45368;55.002;-1.592;2023-02-28T11:00:49;103066.11;;;4.15;69.07
59545;BME280;45368;55.002;-1.592;2023-02-28T11:03:31;103062.10;;;5.00;67.76
59545;BME280;45368;55.002;-1.592;2023-02-28T11:06:04;103059.26;;;5.29;65.75
59545;BME280;45368;55.002;-1.592;2023-02-28T11:08:32;103061.65;;;4.91;67.77
59545;BME280;45368;55.002;-1.592;2023-02-28T11:11:06;103063.05;;;5.08;66.51
59545;BME280;45368;55.002;-1.592;2023-02-28T11:13:35;103062.73;;;5.15;66.57
59545;BME280;45368;55.002;-1.592;2023-02-28T11:16:04;103070.42;;;4.59;69.30
59545;BME280;45368;55.002;-1.592;2023-02-28T11:18:39;103073.00;;;3.55;75.12
59545;BME280;45368;55.002;-1.592;2023-02-28T11:21:09;103086.57;;;3.35;77.17
59545;BME280;45368;55.002;-1.592;2023-02-28T11:23:43;103080.33;;;3.20;77.86
59545;BME280;45368;55.002;-1.592;2023-02-28T11:26:10;103073.41;;;3.46;77.57
59545;BME280;45368;55.002;-1.592;2023-02-28T11:28:40;103077.19;;;3.37;77.50
59545;BME280;45368;55.002;-1.592;2023-02-28T11:31:17;103076.67;;;3.66;76.83
59545;BME280;45368;55.002;-1.592;2023-02-28T11:33:47;103070.45;;;4.22;75.66
59545;BME280;45368;55.002;-1.592;2023-02-28T11:36:20;103069.22;;;4.47;72.85
59545;BME280;45368;55.002;-1.592;2023-02-28T11:38:48;103064.45;;;6.44;68.52
59545;BME280;45368;55.002;-1.592;2023-02-28T11:41:27;103059.34;;;6.85;65.36
59545;BME280;45368;55.002;-1.592;2023-02-28T11:44:07;103062.45;;;6.32;66.63
59545;BME280;45368;55.002;-1.592;2023-02-28T11:46:43;103055.55;;;4.73;69.15
59545;BME280;45368;55.002;-1.592;2023-02-28T11:49:25;103052.52;;;4.40;70.15
59545;BME280;45368;55.002;-1.592;2023-02-28T11:52:01;103056.34;;;4.22;72.28
59545;BME280;45368;55.002;-1.592;2023-02-28T11:54:42;103065.68;;;3.64;75.99
59545;BME280;45368;55.002;-1.592;2023-02-28T11:57:28;103057.98;;;5.04;72.77
59545;BME280;45368;55.002;-1.592;2023-02-28T12:00:04;103068.78;;;4.41;73.32
59545;BME280;45368;55.002;-1.592;2023-02-28T12:02:47;103061.89;;;4.38;74.64
59545;BME280;45368;55.002;-1.592;2023-02-28T12:05:25;103062.13;;;4.19;73.64
59545;BME280;45368;55.002;-1.592;2023-02-28T12:08:05;103064.91;;;3.32;76.26
59545;BME280;45368;55.002;-1.592;2023-02-28T12:10:41;103056.79;;;3.44;75.91
59545;BME280;45368;55.002;-1.592;2023-02-28T12:13:18;103049.65;;;4.27;73.19
59545;BME280;45368;55.002;-1.592;2023-02-28T12:15:59;103045.65;;;4.63;71.81
59545;BME280;45368;55.002;-1.592;2023-02-28T12:18:43;103041.82;;;5.32;70.06
59545;BME280;45368;55.002;-1.592;2023-02-28T12:21:20;103041.61;;;5.04;68.71
59545;BME280;45368;55.002;-1.592;2023-02-28T12:24:04;103042.09;;;5.40;69.56
59545;BME280;45368;55.002;-1.592;2023-02-28T12:26:37;103031.06;;;5.38;68.71
59545;BME280;45368;55.002;-1.592;2023-02-28T12:29:14;103029.18;;;4.78;69.67
59545;BME280;45368;55.002;-1.592;2023-02-28T12:31:47;103024.54;;;4.56;68.86
59545;BME280;45368;55.002;-1.592;2023-02-28T12:34:19;103021.35;;;4.69;68.42
59545;BME280;45368;55.002;-1.592;2023-02-28T12:36:48;103019.71;;;4.50;68.53
59545;BME280;45368;55.002;-1.592;2023-02-28T12:39:22;103019.98;;;4.62;67.42
59545;BME280;45368;55.002;-1.592;2023-02-28T12:41:55;103014.41;;;4.22;68.82
59545;BME280;45368;55.002;-1.592;2023-02-28T12:44:30;103020.47;;;3.69;70.63
59545;BME280;45368;55.002;-1.592;2023-02-28T12:47:01;103017.80;;;4.15;69.43
59545;BME280;45368;55.002;-1.592;2023-02-28T12:49:33;103017.63;;;4.24;70.09
59545;BME280;45368;55.002;-1.592;2023-02-28T12:52:02;103023.42;;;4.38;68.58
59545;BME280;45368;55.002;-1.592;2023-02-28T12:54:35;103017.58;;;4.21;68.41
59545;BME280;45368;55.002;-1.592;2023-02-28T12:57:11;103017.11;;;4.43;68.42
59545;BME280;45368;55.002;-1.592;2023-02-28T12:59:42;103012.37;;;4.53;68.51
59545;BME280;45368;55.002;-1.592;2023-02-28T13:02:37;103010.72;;;4.67;68.11
59545;BME280;45368;55.002;-1.592;2023-02-28T13:05:21;103001.23;;;5.06;66.50
59545;BME280;45368;55.002;-1.592;2023-02-28T13:08:04;103004.06;;;5.54;65.05
59545;BME280;45368;55.002;-1.592;2023-02-28T13:10:41;103009.69;;;4.68;67.88
59545;BME280;45368;55.002;-1.592;2023-02-28T13:13:15;103001.11;;;5.76;65.74
59545;BME280;45368;55.002;-1.592;2023-02-28T13:15:58;103004.12;;;4.79;66.80
59545;BME280;45368;55.002;-1.592;2023-02-28T13:18:30;103006.63;;;3.93;70.16
59545;BME280;45368;55.002;-1.592;2023-02-28T13:20:59;103007.59;;;4.30;71.53
59545;BME280;45368;55.002;-1.592;2023-02-28T13:24:02;103002.15;;;4.00;72.44
59545;BME280;45368;55.002;-1.592;2023-02-28T13:27:39;102995.75;;;3.97;71.43
59545;BME280;45368;55.002;-1.592;2023-02-28T13:31:12;103004.00;;;3.45;74.98
59545;BME280;45368;55.002;-1.592;2023-02-28T13:34:11;103003.46;;;3.79;72.84
59545;BME280;45368;55.002;-1.592;2023-02-28T13:36:39;102996.97;;;3.77;72.40
59545;BME280;45368;55.002;-1.592;2023-02-28T13:39:46;102995.00;;;3.53;72.51
59545;BME280;45368;55.002;-1.592;2023-02-28T13:42:34;102992.47;;;3.74;71.48
59545;BME280;45368;55.002;-1.592;2023-02-28T13:45:23;102978.14;;;4.49;69.07
59545;BME280;45368;55.002;-1.592;2023-02-28T13:47:53;102983.11;;;3.95;71.00
59545;BME280;45368;55.002;-1.592;2023-02-28T13:50:27;102983.09;;;4.16;71.75
59545;BME280;45368;55.002;-1.592;2023-02-28T13:53:37;102974.79;;;5.27;69.98
59545;BME280;45368;55.002;-1.592;2023-02-28T13:56:23;102977.29;;;5.19;69.61
59545;BME280;45368;55.002;-1.592;2023-02-28T13:58:57;102980.59;;;4.26;71.15
59545;BME280;45368;55.002;-1.592;2023-02-28T14:01:38;102983.87;;;4.16;70.96
59545;BME280;45368;55.002;-1.592;2023-02-28T14:04:29;102985.12;;;4.89;69.61
59545;BME280;45368;55.002;-1.592;2023-02-28T14:07:05;102980.67;;;4.38;71.46
59545;BME280;45368;55.002;-1.592;2023-02-28T14:09:36;102976.17;;;4.43;71.08
59545;BME280;45368;55.002;-1.592;2023-02-28T14:14:55;102969.38;;;5.65;69.04
59545;BME280;45368;55.002;-1.592;2023-02-28T14:17:22;102965.46;;;4.83;68.74
59545;BME280;45368;55.002;-1.592;2023-02-28T14:19:51;102964.41;;;4.02;70.64
59545;BME280;45368;55.002;-1.592;2023-02-28T14:22:39;102958.62;;;4.16;70.25
59545;BME280;45368;55.002;-1.592;2023-02-28T14:25:16;102951.21;;;5.18;67.83
59545;BME280;45368;55.002;-1.592;2023-02-28T14:27:50;102952.05;;;4.74;68.89
59545;BME280;45368;55.002;-1.592;2023-02-28T14:31:01;102951.57;;;4.60;69.98
59545;BME280;45368;55.002;-1.592;2023-02-28T14:33:44;102962.22;;;4.16;74.00
59545;BME280;45368;55.002;-1.592;2023-02-28T14:36:20;102958.92;;;4.10;74.19
59545;BME280;45368;55.002;-1.592;2023-02-28T14:38:51;102953.23;;;3.85;76.19
59545;BME280;45368;55.002;-1.592;2023-02-28T14:41:23;102951.46;;;4.42;75.01
59545;BME280;45368;55.002;-1.592;2023-02-28T14:43:53;102956.35;;;4.07;76.67
59545;BME280;45368;55.002;-1.592;2023-02-28T14:46:23;102957.41;;;3.73;78.39
59545;BME280;45368;55.002;-1.592;2023-02-28T14:48:52;102953.51;;;4.12;77.51
59545;BME280;45368;55.002;-1.592;2023-02-28T14:51:23;102955.11;;;3.80;78.59
59545;BME280;45368;55.002;-1.592;2023-02-28T14:53:57;102955.24;;;3.99;78.14
59545;BME280;45368;55.002;-1.592;2023-02-28T14:56:28;102953.22;;;4.37;75.98
59545;BME280;45368;55.002;-1.592;2023-02-28T14:58:57;102952.56;;;4.35;75.10
59545;BME280;45368;55.002;-1.592;2023-02-28T15:01:25;102954.37;;;4.93;73.86
59545;BME280;45368;55.002;-1.592;2023-02-28T15:04:02;102949.96;;;4.76;73.58
59545;BME280;45368;55.002;-1.592;2023-02-28T15:06:31;102954.01;;;4.25;75.27
59545;BME280;45368;55.002;-1.592;2023-02-28T15:09:09;102949.64;;;4.16;74.55
59545;BME280;45368;55.002;-1.592;2023-02-28T15:11:38;102953.46;;;4.28;74.53
59545;BME280;45368;55.002;-1.592;2023-02-28T15:14:06;102953.07;;;3.40;77.53
59545;BME280;45368;55.002;-1.592;2023-02-28T15:16:36;102948.70;;;4.02;77.46
59545;BME280;45368;55.002;-1.592;2023-02-28T15:19:06;102955.53;;;4.05;77.48
59545;BME280;45368;55.002;-1.592;2023-02-28T15:21:36;102973.89;;;3.40;80.28
59545;BME280;45368;55.002;-1.592;2023-02-28T15:24:07;102966.12;;;3.79;79.58
59545;BME280;45368;55.002;-1.592;2023-02-28T15:26:39;102970.94;;;2.74;82.22
59545;BME280;45368;55.002;-1.592;2023-02-28T15:29:12;102968.69;;;2.97;81.01
59545;BME280;45368;55.002;-1.592;2023-02-28T15:31:43;102967.02;;;3.11;80.45
59545;BME280;45368;55.002;-1.592;2023-02-28T15:34:18;102967.88;;;3.31;80.06
59545;BME280;45368;55.002;-1.592;2023-02-28T15:36:45;102966.27;;;3.13;80.03
59545;BME280;45368;55.002;-1.592;2023-02-28T15:39:23;102964.48;;;3.25;80.07
59545;BME280;45368;55.002;-1.592;2023-02-28T15:41:51;102967.40;;;3.80;78.31
59545;BME280;45368;55.002;-1.592;2023-02-28T15:44:25;102960.27;;;4.18;77.00
59545;BME280;45368;55.002;-1.592;2023-02-28T15:46:59;102966.42;;;3.96;77.17
59545;BME280;45368;55.002;-1.592;2023-02-28T15:49:29;102964.67;;;4.09;76.66
59545;BME280;45368;55.002;-1.592;2023-02-28T15:51:58;102961.84;;;4.01;76.43
59545;BME280;45368;55.002;-1.592;2023-02-28T15:54:28;102960.48;;;4.91;74.75
59545;BME280;45368;55.002;-1.592;2023-02-28T15:57:00;102966.17;;;4.48;75.67
59545;BME280;45368;55.002;-1.592;2023-02-28T15:59:30;102966.03;;;4.60;74.71
59545;BME280;45368;55.002;-1.592;2023-02-28T16:02:15;102966.26;;;4.54;76.98
59545;BME280;45368;55.002;-1.592;2023-02-28T16:05:17;102969.76;;;4.19;76.55
59545;BME280;45368;55.002;-1.592;2023-02-28T16:07:45;102975.04;;;4.26;76.40
59545;BME280;45368;55.002;-1.592;2023-02-28T16:10:13;102968.64;;;4.26;77.63
59545;BME280;45368;55.002;-1.592;2023-02-28T16:12:40;102974.55;;;3.56;81.70
59545;BME280;45368;55.002;-1.592;2023-02-28T16:15:17;102969.07;;;3.77;80.36
59545;BME280;45368;55.002;-1.592;2023-02-28T16:17:45;102968.14;;;3.99;78.44
59545;BME280;45368;55.002;-1.592;2023-02-28T16:20:14;102968.55;;;4.22;78.27
59545;BME280;45368;55.002;-1.592;2023-02-28T16:22:42;102973.52;;;3.79;80.04